sensor_id;sensor_type;location;lat;lon;timestamp;temperature;humidity
1359;DHT22;673;48.098;14.422;2023-04-25T00:00:52;6.70;99.90
1359;DHT22;673;48.098;14.422;2023-04-25T00:03:21;6.70;99.90
1359;DHT22;673;48.098;14.422;2023-04-25T00:05:50;6.70;99.90
1359;DHT22;673;48.098;14.422;2023-04-25T00:08:17;6.70;99.90
1359;DHT22;673;48.098;14.422;2023-04-25T00:10:44;6.70;99.90
1359;DHT22;673;48.098;14.422;2023-04-25T00:13:11;6.80;99.90
1359;DHT22;673;48.098;14.422;2023-04-25T00:15:39;6.80;99.90
1359;DHT22;673;48.098;14.422;2023-04-25T00:18:07;6.80;99.90
1359;DHT22;673;48.098;14.422;2023-04-25T00:20:36;6.80;99.90
1359;DHT22;673;48.098;14.422;2023-04-25T00:23:03;6.80;99.90
1359;DHT22;673;48.098;14.422;2023-04-25T00:25:30;6.80;99.90
1359;DHT22;673;48.098;14.422;2023-04-25T00:27:57;6.70;99.90
1359;DHT22;673;48.098;14.422;2023-04-25T00:30:24;6.70;99.90
1359;DHT22;673;48.098;14.422;2023-04-25T00:32:51;6.70;99.90
1359;DHT22;673;48.098;14.422;2023-04-25T00:35:18;6.80;99.90
1359;DHT22;673;48.098;14.422;2023-04-25T00:37:48;6.70;99.90
1359;DHT22;673;48.098;14.422;2023-04-25T00:40:15;6.60;99.90
1359;DHT22;673;48.098;14.422;2023-04-25T00:42:42;6.60;99.90
1359;DHT22;673;48.098;14.422;2023-04-25T00:45:12;6.50;99.90
1359;DHT22;673;48.098;14.422;2023-04-25T00:47:40;6.40;99.90
1359;DHT22;673;48.098;14.422;2023-04-25T00:50:08;6.50;99.90
1359;DHT22;673;48.098;14.422;2023-04-25T00:52:36;6.50;99.90
1359;DHT22;673;48.098;14.422;2023-04-25T00:55:05;6.50;99.90
1359;DHT22;673;48.098;14.422;2023-04-25T00:57:33;6.50;99.90
1359;DHT22;673;48.098;14.422;2023-04-25T01:00:01;6.50;99.90
1359;DHT22;673;48.098;14.422;2023-04-25T01:02:29;6.50;99.90
1359;DHT22;673;48.098;14.422;2023-04-25T01:04:56;6.60;99.90
1359;DHT22;673;48.098;14.422;2023-04-25T01:07:24;6.60;99.90
1359;DHT22;673;48.098;14.422;2023-04-25T01:09:52;6.50;99.90
1359;DHT22;673;48.098;14.422;2023-04-25T01:12:20;6.40;99.90
1359;DHT22;673;48.098;14.422;2023-04-25T01:14:47;6.30;99.90
1359;DHT22;673;48.098;14.422;2023-04-25T01:17:15;6.30;99.90
1359;DHT22;673;48.098;14.422;2023-04-25T01:19:43;6.20;99.90
1359;DHT22;673;48.098;14.422;2023-04-25T01:22:13;6.10;99.90
1359;DHT22;673;48.098;14.422;2023-04-25T01:24:40;6.10;99.90
1359;DHT22;673;48.098;14.422;2023-04-25T01:27:08;6.10;99.90
1359;DHT22;673;48.098;14.422;2023-04-25T01:29:36;6.20;99.90
1359;DHT22;673;48.098;14.422;2023-04-25T01:32:04;6.30;99.90
1359;DHT22;673;48.098;14.422;2023-04-25T01:34:32;6.40;99.90
1359;DHT22;673;48.098;14.422;2023-04-25T01:37:00;6.50;99.90
1359;DHT22;673;48.098;14.422;2023-04-25T01:39:29;6.50;99.90
1359;DHT22;673;48.098;14.422;2023-04-25T01:41:56;6.60;99.90
1359;DHT22;673;48.098;14.422;2023-04-25T01:44:23;6.60;99.90
1359;DHT22;673;48.098;14.422;2023-04-25T01:46:50;6.60;99.90
1359;DHT22;673;48.098;14.422;2023-04-25T01:49:17;6.60;99.90
1359;DHT22;673;48.098;14.422;2023-04-25T01:51:44;6.50;99.90
1359;DHT22;673;48.098;14.422;2023-04-25T01:54:11;6.50;99.90
1359;DHT22;673;48.098;14.422;2023-04-25T01:56:40;6.50;99.90
1359;DHT22;673;48.098;14.422;2023-04-25T01:59:07;6.50;99.90
1359;DHT22;673;48.098;14.422;2023-04-25T02:01:34;6.60;99.90
1359;DHT22;673;48.098;14.422;2023-04-25T02:04:01;6.60;99.90
1359;DHT22;673;48.098;14.422;2023-04-25T02:06:28;6.60;99.90
1359;DHT22;673;48.098;14.422;2023-04-25T02:08:56;6.60;99.90
1359;DHT22;673;48.098;14.422;2023-04-25T02:11:23;6.60;99.90
1359;DHT22;673;48.098;14.422;2023-04-25T02:13:51;6.60;99.90
1359;DHT22;673;48.098;14.422;2023-04-25T02:16:18;6.60;99.90
1359;DHT22;673;48.098;14.422;2023-04-25T02:18:45;6.70;99.90
1359;DHT22;673;48.098;14.422;2023-04-25T02:21:12;6.70;99.90
1359;DHT22;673;48.098;14.422;2023-04-25T02:23:39;6.70;99.90
1359;DHT22;673;48.098;14.422;2023-04-25T02:26:06;6.70;99.90
1359;DHT22;673;48.098;14.422;2023-04-25T02:28:33;6.80;99.90
1359;DHT22;673;48.098;14.422;2023-04-25T02:31:02;6.70;99.90
1359;DHT22;673;48.098;14.422;2023-04-25T02:33:29;6.70;99.90
1359;DHT22;673;48.098;14.422;2023-04-25T02:35:56;6.60;99.90
1359;DHT22;673;48.098;14.422;2023-04-25T02:38:23;6.50;99.90
1359;DHT22;673;48.098;14.422;2023-04-25T02:40:50;6.40;99.90
1359;DHT22;673;48.098;14.422;2023-04-25T02:43:17;6.30;99.90
1359;DHT22;673;48.098;14.422;2023-04-25T02:45:44;6.20;99.90
1359;DHT22;673;48.098;14.422;2023-04-25T02:48:12;6.10;99.90
1359;DHT22;673;48.098;14.422;2023-04-25T02:50:39;6.00;99.90
1359;DHT22;673;48.098;14.422;2023-04-25T02:53:06;5.90;99.90
1359;DHT22;673;48.098;14.422;2023-04-25T02:55:33;5.90;99.90
1359;DHT22;673;48.098;14.422;2023-04-25T02:58:00;5.90;99.90
1359;DHT22;673;48.098;14.422;2023-04-25T03:00:27;5.80;99.90
1359;DHT22;673;48.098;14.422;2023-04-25T03:02:54;5.70;99.90
1359;DHT22;673;48.098;14.422;2023-04-25T03:05:23;5.60;99.90
1359;DHT22;673;48.098;14.422;2023-04-25T03:07:49;5.40;99.90
1359;DHT22;673;48.098;14.422;2023-04-25T03:10:16;5.40;99.90
1359;DHT22;673;48.098;14.422;2023-04-25T03:12:43;5.40;99.90
1359;DHT22;673;48.098;14.422;2023-04-25T03:15:10;5.50;99.90
1359;DHT22;673;48.098;14.422;2023-04-25T03:17:37;5.40;99.90
1359;DHT22;673;48.098;14.422;2023-04-25T03:20:06;5.40;99.90
1359;DHT22;673;48.098;14.422;2023-04-25T03:22:35;5.40;99.90
1359;DHT22;673;48.098;14.422;2023-04-25T03:25:02;5.40;99.90
1359;DHT22;673;48.098;14.422;2023-04-25T03:27:29;5.30;99.90
1359;DHT22;673;48.098;14.422;2023-04-25T03:29:56;5.40;99.90
1359;DHT22;673;48.098;14.422;2023-04-25T03:32:23;5.50;99.90
1359;DHT22;673;48.098;14.422;2023-04-25T03:34:50;5.50;99.90
1359;DHT22;673;48.098;14.422;2023-04-25T03:37:17;5.50;99.90
1359;DHT22;673;48.098;14.422;2023-04-25T03:39:45;5.50;99.90
1359;DHT22;673;48.098;14.422;2023-04-25T03:42:12;5.40;99.90
1359;DHT22;673;48.098;14.422;2023-04-25T03:44:39;5.30;99.90
1359;DHT22;673;48.098;14.422;2023-04-25T03:47:06;5.20;99.90
1359;DHT22;673;48.098;14.422;2023-04-25T03:49:34;5.20;99.90
1359;DHT22;673;48.098;14.422;2023-04-25T03:52:01;5.20;99.90
1359;DHT22;673;48.098;14.422;2023-04-25T03:54:28;5.20;99.90
1359;DHT22;673;48.098;14.422;2023-04-25T03:56:56;5.20;99.90
1359;DHT22;673;48.098;14.422;2023-04-25T03:59:24;5.20;99.90
1359;DHT22;673;48.098;14.422;2023-04-25T04:01:51;5.20;99.90
1359;DHT22;673;48.098;14.422;2023-04-25T04:04:18;5.30;99.90
1359;DHT22;673;48.098;14.422;2023-04-25T04:06:45;5.30;99.90
1359;DHT22;673;48.098;14.422;2023-04-25T04:09:12;5.30;99.90
1359;DHT22;673;48.098;14.422;2023-04-25T04:11:39;5.30;99.90
1359;DHT22;673;48.098;14.422;2023-04-25T04:14:08;5.30;99.90
1359;DHT22;673;48.098;14.422;2023-04-25T04:16:35;5.20;99.90
1359;DHT22;673;48.098;14.422;2023-04-25T04:19:02;5.20;99.90
1359;DHT22;673;48.098;14.422;2023-04-25T04:21:30;5.20;99.90
1359;DHT22;673;48.098;14.422;2023-04-25T04:23:57;5.30;99.90
1359;DHT22;673;48.098;14.422;2023-04-25T04:26:25;5.30;99.90
1359;DHT22;673;48.098;14.422;2023-04-25T04:28:53;5.40;99.90
1359;DHT22;673;48.098;14.422;2023-04-25T04:31:22;5.40;99.90
1359;DHT22;673;48.098;14.422;2023-04-25T04:33:49;5.40;99.90
1359;DHT22;673;48.098;14.422;2023-04-25T04:36:16;5.50;99.90
1359;DHT22;673;48.098;14.422;2023-04-25T04:38:45;5.60;99.90
1359;DHT22;673;48.098;14.422;2023-04-25T04:41:12;5.60;99.90
1359;DHT22;673;48.098;14.422;2023-04-25T04:43:39;5.70;99.90
1359;DHT22;673;48.098;14.422;2023-04-25T04:46:07;5.80;99.90
1359;DHT22;673;48.098;14.422;2023-04-25T04:48:37;6.00;99.90
1359;DHT22;673;48.098;14.422;2023-04-25T04:51:05;6.10;99.90
1359;DHT22;673;48.098;14.422;2023-04-25T04:53:32;6.30;99.90
1359;DHT22;673;48.098;14.422;2023-04-25T04:56:00;6.60;99.90
1359;DHT22;673;48.098;14.422;2023-04-25T04:58:27;6.90;99.90
1359;DHT22;673;48.098;14.422;2023-04-25T05:00:55;7.20;99.90
1359;DHT22;673;48.098;14.422;2023-04-25T05:03:22;7.40;99.90
1359;DHT22;673;48.098;14.422;2023-04-25T05:05:50;7.50;99.90
1359;DHT22;673;48.098;14.422;2023-04-25T05:08:17;7.60;99.90
1359;DHT22;673;48.098;14.422;2023-04-25T05:10:44;7.70;99.90
1359;DHT22;673;48.098;14.422;2023-04-25T05:13:11;7.70;99.90
1359;DHT22;673;48.098;14.422;2023-04-25T05:15:38;7.60;99.90
1359;DHT22;673;48.098;14.422;2023-04-25T05:18:05;7.60;99.90
1359;DHT22;673;48.098;14.422;2023-04-25T05:20:32;7.60;99.90
1359;DHT22;673;48.098;14.422;2023-04-25T05:23:00;7.70;99.90
1359;DHT22;673;48.098;14.422;2023-04-25T05:25:28;7.80;99.90
1359;DHT22;673;48.098;14.422;2023-04-25T05:27:55;7.90;99.90
1359;DHT22;673;48.098;14.422;2023-04-25T05:30:22;8.10;99.90
1359;DHT22;673;48.098;14.422;2023-04-25T05:32:49;8.30;99.90
1359;DHT22;673;48.098;14.422;2023-04-25T05:35:16;8.60;99.90
1359;DHT22;673;48.098;14.422;2023-04-25T05:37:43;8.80;99.90
1359;DHT22;673;48.098;14.422;2023-04-25T05:40:12;9.10;99.90
1359;DHT22;673;48.098;14.422;2023-04-25T05:42:39;9.10;99.90
1359;DHT22;673;48.098;14.422;2023-04-25T05:45:06;9.10;99.90
1359;DHT22;673;48.098;14.422;2023-04-25T05:47:33;9.00;99.90
1359;DHT22;673;48.098;14.422;2023-04-25T05:50:00;8.80;99.90
1359;DHT22;673;48.098;14.422;2023-04-25T05:52:27;8.70;99.90
1359;DHT22;673;48.098;14.422;2023-04-25T05:54:54;8.70;99.90
1359;DHT22;673;48.098;14.422;2023-04-25T05:57:24;8.60;99.90
1359;DHT22;673;48.098;14.422;2023-04-25T05:59:52;8.60;99.90
1359;DHT22;673;48.098;14.422;2023-04-25T06:02:20;8.60;99.90
1359;DHT22;673;48.098;14.422;2023-04-25T06:04:47;8.50;99.90
1359;DHT22;673;48.098;14.422;2023-04-25T06:07:14;8.40;99.90
1359;DHT22;673;48.098;14.422;2023-04-25T06:09:41;8.30;99.90
1359;DHT22;673;48.098;14.422;2023-04-25T06:12:08;8.60;99.90
1359;DHT22;673;48.098;14.422;2023-04-25T06:14:36;8.80;99.90
1359;DHT22;673;48.098;14.422;2023-04-25T06:17:04;9.00;99.90
1359;DHT22;673;48.098;14.422;2023-04-25T06:19:34;9.10;99.90
1359;DHT22;673;48.098;14.422;2023-04-25T06:22:02;9.20;99.90
1359;DHT22;673;48.098;14.422;2023-04-25T06:24:29;9.40;99.90
1359;DHT22;673;48.098;14.422;2023-04-25T06:26:56;9.60;99.90
1359;DHT22;673;48.098;14.422;2023-04-25T06:29:23;9.70;99.90
1359;DHT22;673;48.098;14.422;2023-04-25T06:31:51;9.90;99.90
1359;DHT22;673;48.098;14.422;2023-04-25T06:34:19;9.90;99.90
1359;DHT22;673;48.098;14.422;2023-04-25T06:36:46;10.20;99.90
1359;DHT22;673;48.098;14.422;2023-04-25T06:39:13;10.30;99.90
1359;DHT22;673;48.098;14.422;2023-04-25T06:41:40;10.40;99.90
1359;DHT22;673;48.098;14.422;2023-04-25T06:44:07;10.70;99.90
1359;DHT22;673;48.098;14.422;2023-04-25T06:46:34;10.80;99.90
1359;DHT22;673;48.098;14.422;2023-04-25T06:49:03;11.00;99.90
1359;DHT22;673;48.098;14.422;2023-04-25T06:51:30;10.90;99.90
1359;DHT22;673;48.098;14.422;2023-04-25T06:53:57;10.80;99.90
1359;DHT22;673;48.098;14.422;2023-04-25T06:56:24;11.00;99.90
1359;DHT22;673;48.098;14.422;2023-04-25T06:58:51;11.20;99.90
1359;DHT22;673;48.098;14.422;2023-04-25T07:01:18;11.10;99.90
1359;DHT22;673;48.098;14.422;2023-04-25T07:03:45;11.00;99.90
1359;DHT22;673;48.098;14.422;2023-04-25T07:06:13;11.20;99.90
1359;DHT22;673;48.098;14.422;2023-04-25T07:08:40;11.10;99.90
1359;DHT22;673;48.098;14.422;2023-04-25T07:11:07;11.20;99.90
1359;DHT22;673;48.098;14.422;2023-04-25T07:13:34;11.40;99.90
1359;DHT22;673;48.098;14.422;2023-04-25T07:16:02;11.40;99.90
1359;DHT22;673;48.098;14.422;2023-04-25T07:18:29;11.70;99.90
1359;DHT22;673;48.098;14.422;2023-04-25T07:20:56;11.50;99.90
1359;DHT22;673;48.098;14.422;2023-04-25T07:23:24;11.10;99.90
1359;DHT22;673;48.098;14.422;2023-04-25T07:25:51;11.00;99.90
1359;DHT22;673;48.098;14.422;2023-04-25T07:28:18;10.70;99.90
1359;DHT22;673;48.098;14.422;2023-04-25T07:30:45;10.60;99.90
1359;DHT22;673;48.098;14.422;2023-04-25T07:33:12;10.50;99.90
1359;DHT22;673;48.098;14.422;2023-04-25T07:35:39;10.40;99.90
1359;DHT22;673;48.098;14.422;2023-04-25T07:38:06;10.30;99.90
1359;DHT22;673;48.098;14.422;2023-04-25T07:40:35;10.20;99.90
1359;DHT22;673;48.098;14.422;2023-04-25T07:43:02;10.30;99.90
1359;DHT22;673;48.098;14.422;2023-04-25T07:45:29;10.40;99.90
1359;DHT22;673;48.098;14.422;2023-04-25T07:47:55;10.30;99.90
1359;DHT22;673;48.098;14.422;2023-04-25T07:50:22;10.30;99.90
1359;DHT22;673;48.098;14.422;2023-04-25T07:52:49;10.20;99.90
1359;DHT22;673;48.098;14.422;2023-04-25T07:55:16;10.20;99.90
1359;DHT22;673;48.098;14.422;2023-04-25T07:57:45;10.10;99.90
1359;DHT22;673;48.098;14.422;2023-04-25T08:00:13;10.00;99.90
1359;DHT22;673;48.098;14.422;2023-04-25T08:02:40;9.80;99.90
1359;DHT22;673;48.098;14.422;2023-04-25T08:05:08;9.70;99.90
1359;DHT22;673;48.098;14.422;2023-04-25T08:07:37;9.90;99.90
1359;DHT22;673;48.098;14.422;2023-04-25T08:10:05;10.10;99.90
1359;DHT22;673;48.098;14.422;2023-04-25T08:12:32;10.10;99.90
1359;DHT22;673;48.098;14.422;2023-04-25T08:15:01;10.10;99.90
1359;DHT22;673;48.098;14.422;2023-04-25T08:17:29;10.20;99.90
1359;DHT22;673;48.098;14.422;2023-04-25T08:19:56;10.20;99.90
1359;DHT22;673;48.098;14.422;2023-04-25T08:22:23;10.40;99.90
1359;DHT22;673;48.098;14.422;2023-04-25T08:24:50;10.70;99.90
1359;DHT22;673;48.098;14.422;2023-04-25T08:27:17;10.80;99.90
1359;DHT22;673;48.098;14.422;2023-04-25T08:29:44;10.80;99.90
1359;DHT22;673;48.098;14.422;2023-04-25T08:32:12;11.10;99.90
1359;DHT22;673;48.098;14.422;2023-04-25T08:34:40;11.10;99.90
1359;DHT22;673;48.098;14.422;2023-04-25T08:37:08;11.20;99.90
1359;DHT22;673;48.098;14.422;2023-04-25T08:39:36;11.30;99.90
1359;DHT22;673;48.098;14.422;2023-04-25T08:42:06;11.20;99.90
1359;DHT22;673;48.098;14.422;2023-04-25T08:44:33;11.20;99.90
1359;DHT22;673;48.098;14.422;2023-04-25T08:47:02;11.00;99.90
1359;DHT22;673;48.098;14.422;2023-04-25T08:49:32;10.60;99.90
1359;DHT22;673;48.098;14.422;2023-04-25T08:52:00;10.30;99.90
1359;DHT22;673;48.098;14.422;2023-04-25T08:54:28;10.30;99.90
1359;DHT22;673;48.098;14.422;2023-04-25T08:56:57;10.20;99.90
1359;DHT22;673;48.098;14.422;2023-04-25T08:59:24;10.30;99.90
1359;DHT22;673;48.098;14.422;2023-04-25T09:01:51;10.50;99.90
1359;DHT22;673;48.098;14.422;2023-04-25T09:04:18;10.50;99.90
1359;DHT22;673;48.098;14.422;2023-04-25T09:06:47;10.90;99.90
1359;DHT22;673;48.098;14.422;2023-04-25T09:09:14;11.40;99.90
1359;DHT22;673;48.098;14.422;2023-04-25T09:11:41;11.80;99.90
1359;DHT22;673;48.098;14.422;2023-04-25T09:14:15;12.00;99.90
1359;DHT22;673;48.098;14.422;2023-04-25T09:16:59;12.30;99.90
1359;DHT22;673;48.098;14.422;2023-04-25T09:19:27;12.70;99.90
1359;DHT22;673;48.098;14.422;2023-04-25T09:21:57;13.50;99.90
1359;DHT22;673;48.098;14.422;2023-04-25T09:24:32;14.20;99.90
1359;DHT22;673;48.098;14.422;2023-04-25T09:27:00;14.00;99.90
1359;DHT22;673;48.098;14.422;2023-04-25T09:29:33;13.70;99.90
1359;DHT22;673;48.098;14.422;2023-04-25T09:32:16;12.80;99.90
1359;DHT22;673;48.098;14.422;2023-04-25T09:34:44;12.70;99.90
1359;DHT22;673;48.098;14.422;2023-04-25T09:37:17;13.30;99.90
1359;DHT22;673;48.098;14.422;2023-04-25T09:39:46;13.70;99.90
1359;DHT22;673;48.098;14.422;2023-04-25T09:42:14;14.00;99.90
1359;DHT22;673;48.098;14.422;2023-04-25T09:44:44;13.80;99.90
1359;DHT22;673;48.098;14.422;2023-04-25T09:47:12;13.80;99.90
1359;DHT22;673;48.098;14.422;2023-04-25T09:49:40;14.30;99.90
1359;DHT22;673;48.098;14.422;2023-04-25T09:52:15;14.00;97.30
1359;DHT22;673;48.098;14.422;2023-04-25T09:54:43;13.90;96.70
1359;DHT22;673;48.098;14.422;2023-04-25T09:57:12;14.00;99.10
1359;DHT22;673;48.098;14.422;2023-04-25T09:59:43;13.60;95.80
1359;DHT22;673;48.098;14.422;2023-04-25T10:02:11;13.20;96.50
1359;DHT22;673;48.098;14.422;2023-04-25T10:04:39;12.70;96.90
1359;DHT22;673;48.098;14.422;2023-04-25T10:07:08;12.40;97.80
1359;DHT22;673;48.098;14.422;2023-04-25T10:09:38;12.10;98.40
1359;DHT22;673;48.098;14.422;2023-04-25T10:12:06;12.20;99.90
1359;DHT22;673;48.098;14.422;2023-04-25T10:14:33;12.60;99.90
1359;DHT22;673;48.098;14.422;2023-04-25T10:17:01;12.90;99.90
1359;DHT22;673;48.098;14.422;2023-04-25T10:19:28;12.60;98.90
1359;DHT22;673;48.098;14.422;2023-04-25T10:22:02;12.40;98.60
1359;DHT22;673;48.098;14.422;2023-04-25T10:24:30;12.30;97.20
1359;DHT22;673;48.098;14.422;2023-04-25T10:26:59;12.60;99.00
1359;DHT22;673;48.098;14.422;2023-04-25T10:29:27;13.10;96.70
1359;DHT22;673;48.098;14.422;2023-04-25T10:31:54;12.50;96.90
1359;DHT22;673;48.098;14.422;2023-04-25T10:34:25;12.20;97.90
1359;DHT22;673;48.098;14.422;2023-04-25T10:37:04;12.70;98.40
1359;DHT22;673;48.098;14.422;2023-04-25T10:39:32;13.30;97.50
1359;DHT22;673;48.098;14.422;2023-04-25T10:42:02;13.00;96.70
1359;DHT22;673;48.098;14.422;2023-04-25T10:44:30;12.50;95.70
1359;DHT22;673;48.098;14.422;2023-04-25T10:46:58;12.20;97.90
1359;DHT22;673;48.098;14.422;2023-04-25T10:49:32;11.60;99.30
1359;DHT22;673;48.098;14.422;2023-04-25T10:52:26;11.70;99.90
1359;DHT22;673;48.098;14.422;2023-04-25T10:54:54;12.10;99.90
1359;DHT22;673;48.098;14.422;2023-04-25T10:57:31;12.60;99.90
1359;DHT22;673;48.098;14.422;2023-04-25T10:59:59;12.70;99.90
1359;DHT22;673;48.098;14.422;2023-04-25T11:02:27;12.40;99.90
1359;DHT22;673;48.098;14.422;2023-04-25T11:04:54;12.30;99.90
1359;DHT22;673;48.098;14.422;2023-04-25T11:07:29;12.10;99.90
1359;DHT22;673;48.098;14.422;2023-04-25T11:10:02;12.00;99.50
1359;DHT22;673;48.098;14.422;2023-04-25T11:12:32;11.90;99.20
1359;DHT22;673;48.098;14.422;2023-04-25T11:14:59;11.90;98.60
1359;DHT22;673;48.098;14.422;2023-04-25T11:17:28;11.60;98.50
1359;DHT22;673;48.098;14.422;2023-04-25T11:19:55;11.60;99.80
1359;DHT22;673;48.098;14.422;2023-04-25T11:22:23;11.70;99.90
1359;DHT22;673;48.098;14.422;2023-04-25T11:24:50;12.00;98.90
1359;DHT22;673;48.098;14.422;2023-04-25T11:27:17;11.90;99.90
1359;DHT22;673;48.098;14.422;2023-04-25T11:29:46;11.50;99.90
1359;DHT22;673;48.098;14.422;2023-04-25T11:32:15;11.10;99.90
1359;DHT22;673;48.098;14.422;2023-04-25T11:34:43;10.70;99.90
1359;DHT22;673;48.098;14.422;2023-04-25T11:37:11;10.20;99.90
1359;DHT22;673;48.098;14.422;2023-04-25T11:39:43;8.90;99.90
1359;DHT22;673;48.098;14.422;2023-04-25T11:42:10;7.50;99.90
1359;DHT22;673;48.098;14.422;2023-04-25T11:44:38;7.00;99.90
1359;DHT22;673;48.098;14.422;2023-04-25T11:47:07;6.80;99.90
1359;DHT22;673;48.098;14.422;2023-04-25T11:49:35;6.60;99.90
1359;DHT22;673;48.098;14.422;2023-04-25T11:52:02;6.80;99.90
1359;DHT22;673;48.098;14.422;2023-04-25T11:54:30;7.00;99.90
1359;DHT22;673;48.098;14.422;2023-04-25T11:56:57;7.40;99.90
1359;DHT22;673;48.098;14.422;2023-04-25T11:59:24;8.10;99.90
1359;DHT22;673;48.098;14.422;2023-04-25T12:01:52;8.80;99.90
1359;DHT22;673;48.098;14.422;2023-04-25T12:04:23;9.10;99.90
1359;DHT22;673;48.098;14.422;2023-04-25T12:06:52;9.50;99.90
1359;DHT22;673;48.098;14.422;2023-04-25T12:09:27;9.70;99.90
1359;DHT22;673;48.098;14.422;2023-04-25T12:11:56;10.30;99.90
1359;DHT22;673;48.098;14.422;2023-04-25T12:14:24;10.60;99.90
1359;DHT22;673;48.098;14.422;2023-04-25T12:16:54;11.00;99.90
1359;DHT22;673;48.098;14.422;2023-04-25T12:19:22;11.00;99.90
1359;DHT22;673;48.098;14.422;2023-04-25T12:21:50;10.80;99.90
1359;DHT22;673;48.098;14.422;2023-04-25T12:24:18;11.10;99.90
1359;DHT22;673;48.098;14.422;2023-04-25T12:26:50;11.20;99.90
1359;DHT22;673;48.098;14.422;2023-04-25T12:29:22;11.30;99.90
1359;DHT22;673;48.098;14.422;2023-04-25T12:31:50;11.40;99.90
1359;DHT22;673;48.098;14.422;2023-04-25T12:34:17;11.70;99.90
1359;DHT22;673;48.098;14.422;2023-04-25T12:36:47;11.50;99.90
1359;DHT22;673;48.098;14.422;2023-04-25T12:39:15;11.90;99.90
1359;DHT22;673;48.098;14.422;2023-04-25T12:41:43;12.30;99.90
1359;DHT22;673;48.098;14.422;2023-04-25T12:44:10;12.30;99.90
1359;DHT22;673;48.098;14.422;2023-04-25T12:46:37;12.00;99.90
1359;DHT22;673;48.098;14.422;2023-04-25T12:49:05;12.30;99.90
1359;DHT22;673;48.098;14.422;2023-04-25T12:51:33;12.70;99.90
1359;DHT22;673;48.098;14.422;2023-04-25T12:54:03;12.90;99.90
1359;DHT22;673;48.098;14.422;2023-04-25T12:56:30;12.80;99.90
1359;DHT22;673;48.098;14.422;2023-04-25T12:58:58;13.10;99.90
1359;DHT22;673;48.098;14.422;2023-04-25T13:01:25;13.20;99.90
1359;DHT22;673;48.098;14.422;2023-04-25T13:03:53;13.20;99.90
1359;DHT22;673;48.098;14.422;2023-04-25T13:06:20;13.20;99.90
1359;DHT22;673;48.098;14.422;2023-04-25T13:08:48;12.80;99.90
1359;DHT22;673;48.098;14.422;2023-04-25T13:11:16;12.70;99.90
1359;DHT22;673;48.098;14.422;2023-04-25T13:13:44;13.10;99.90
1359;DHT22;673;48.098;14.422;2023-04-25T13:16:11;13.30;99.90
1359;DHT22;673;48.098;14.422;2023-04-25T13:18:40;12.90;99.90
1359;DHT22;673;48.098;14.422;2023-04-25T13:21:07;12.40;99.90
1359;DHT22;673;48.098;14.422;2023-04-25T13:23:35;11.10;99.90
1359;DHT22;673;48.098;14.422;2023-04-25T13:26:02;9.60;99.90
1359;DHT22;673;48.098;14.422;2023-04-25T13:28:30;8.50;99.90
1359;DHT22;673;48.098;14.422;2023-04-25T13:30:57;8.40;99.90
1359;DHT22;673;48.098;14.422;2023-04-25T13:33:25;8.80;99.90
1359;DHT22;673;48.098;14.422;2023-04-25T13:35:53;9.40;99.90
1359;DHT22;673;48.098;14.422;2023-04-25T13:38:22;9.30;99.90
1359;DHT22;673;48.098;14.422;2023-04-25T13:40:50;9.20;99.90
1359;DHT22;673;48.098;14.422;2023-04-25T13:43:18;9.10;99.90
1359;DHT22;673;48.098;14.422;2023-04-25T13:45:47;9.20;99.90
1359;DHT22;673;48.098;14.422;2023-04-25T13:48:14;9.80;99.90
1359;DHT22;673;48.098;14.422;2023-04-25T13:50:41;10.20;99.90
1359;DHT22;673;48.098;14.422;2023-04-25T13:53:08;10.10;99.90
1359;DHT22;673;48.098;14.422;2023-04-25T13:55:35;10.10;99.90
1359;DHT22;673;48.098;14.422;2023-04-25T13:58:03;10.00;99.90
1359;DHT22;673;48.098;14.422;2023-04-25T14:00:35;10.00;99.90
1359;DHT22;673;48.098;14.422;2023-04-25T14:03:06;10.00;99.90
1359;DHT22;673;48.098;14.422;2023-04-25T14:05:34;10.20;99.90
1359;DHT22;673;48.098;14.422;2023-04-25T14:08:06;10.40;99.90
1359;DHT22;673;48.098;14.422;2023-04-25T14:10:33;10.40;99.90
1359;DHT22;673;48.098;14.422;2023-04-25T14:13:01;10.30;99.90
1359;DHT22;673;48.098;14.422;2023-04-25T14:15:29;10.20;99.90
1359;DHT22;673;48.098;14.422;2023-04-25T14:17:56;10.20;99.90
1359;DHT22;673;48.098;14.422;2023-04-25T14:20:24;10.30;99.90
1359;DHT22;673;48.098;14.422;2023-04-25T14:22:52;10.50;99.90
1359;DHT22;673;48.098;14.422;2023-04-25T14:25:20;10.40;99.90
1359;DHT22;673;48.098;14.422;2023-04-25T14:27:48;10.40;99.90
1359;DHT22;673;48.098;14.422;2023-04-25T14:30:18;10.60;99.90
1359;DHT22;673;48.098;14.422;2023-04-25T14:32:45;10.40;99.90
1359;DHT22;673;48.098;14.422;2023-04-25T14:35:12;10.10;99.90
1359;DHT22;673;48.098;14.422;2023-04-25T14:37:40;10.00;99.90
1359;DHT22;673;48.098;14.422;2023-04-25T14:40:08;10.10;99.90
1359;DHT22;673;48.098;14.422;2023-04-25T14:42:37;10.10;99.90
1359;DHT22;673;48.098;14.422;2023-04-25T14:45:06;10.20;99.90
1359;DHT22;673;48.098;14.422;2023-04-25T14:47:34;10.70;99.90
1359;DHT22;673;48.098;14.422;2023-04-25T14:50:01;11.20;99.90
1359;DHT22;673;48.098;14.422;2023-04-25T14:52:28;11.40;99.90
1359;DHT22;673;48.098;14.422;2023-04-25T14:54:57;11.30;99.90
1359;DHT22;673;48.098;14.422;2023-04-25T14:57:25;11.50;99.90
1359;DHT22;673;48.098;14.422;2023-04-25T14:59:52;11.20;99.90
1359;DHT22;673;48.098;14.422;2023-04-25T15:02:19;11.00;99.90
1359;DHT22;673;48.098;14.422;2023-04-25T15:04:46;10.70;99.90
1359;DHT22;673;48.098;14.422;2023-04-25T15:07:13;10.30;99.90
1359;DHT22;673;48.098;14.422;2023-04-25T15:09:40;10.20;99.90
1359;DHT22;673;48.098;14.422;2023-04-25T15:12:09;10.20;99.90
1359;DHT22;673;48.098;14.422;2023-04-25T15:14:36;10.20;99.90
1359;DHT22;673;48.098;14.422;2023-04-25T15:17:03;10.20;99.90
1359;DHT22;673;48.098;14.422;2023-04-25T15:19:30;10.20;99.90
1359;DHT22;673;48.098;14.422;2023-04-25T15:21:57;10.40;99.90
1359;DHT22;673;48.098;14.422;2023-04-25T15:24:26;10.60;99.90
1359;DHT22;673;48.098;14.422;2023-04-25T15:26:53;10.60;99.90
1359;DHT22;673;48.098;14.422;2023-04-25T15:29:21;10.60;99.90
1359;DHT22;673;48.098;14.422;2023-04-25T15:31:48;10.60;99.90
1359;DHT22;673;48.098;14.422;2023-04-25T15:34:15;10.80;99.90
1359;DHT22;673;48.098;14.422;2023-04-25T15:36:42;10.80;99.90
1359;DHT22;673;48.098;14.422;2023-04-25T15:39:09;11.10;99.90
1359;DHT22;673;48.098;14.422;2023-04-25T15:41:36;11.60;99.90
1359;DHT22;673;48.098;14.422;2023-04-25T15:44:03;11.90;99.90
1359;DHT22;673;48.098;14.422;2023-04-25T15:46:33;11.90;99.90
1359;DHT22;673;48.098;14.422;2023-04-25T15:49:00;11.60;99.90
1359;DHT22;673;48.098;14.422;2023-04-25T15:51:28;11.50;99.90
1359;DHT22;673;48.098;14.422;2023-04-25T15:53:55;11.20;99.90
1359;DHT22;673;48.098;14.422;2023-04-25T15:56:22;11.00;99.90
1359;DHT22;673;48.098;14.422;2023-04-25T15:58:49;10.90;99.90
1359;DHT22;673;48.098;14.422;2023-04-25T16:01:17;10.70;99.90
1359;DHT22;673;48.098;14.422;2023-04-25T16:03:45;10.80;99.90
1359;DHT22;673;48.098;14.422;2023-04-25T16:06:12;10.70;99.90
1359;DHT22;673;48.098;14.422;2023-04-25T16:08:40;10.70;99.90
1359;DHT22;673;48.098;14.422;2023-04-25T16:11:07;10.70;99.90
1359;DHT22;673;48.098;14.422;2023-04-25T16:13:34;10.40;99.90